sensor_id;sensor_type;location;lat;lon;timestamp;temperature;humidity
18948;DHT22;9607;51.600;7.558;2022-08-01T00:02:21;19.30;99.90
18948;DHT22;9607;51.600;7.558;2022-08-01T00:04:48;19.30;99.90
18948;DHT22;9607;51.600;7.558;2022-08-01T00:07:15;19.30;99.90
18948;DHT22;9607;51.600;7.558;2022-08-01T00:09:42;19.30;99.90
18948;DHT22;9607;51.600;7.558;2022-08-01T00:12:09;19.30;99.90
18948;DHT22;9607;51.600;7.558;2022-08-01T00:14:36;19.30;99.90
18948;DHT22;9607;51.600;7.558;2022-08-01T00:17:03;19.30;99.90
18948;DHT22;9607;51.600;7.558;2022-08-01T00:19:32;19.30;99.90
18948;DHT22;9607;51.600;7.558;2022-08-01T00:21:59;19.30;99.90
18948;DHT22;9607;51.600;7.558;2022-08-01T00:24:26;19.30;99.90
18948;DHT22;9607;51.600;7.558;2022-08-01T00:26:53;19.30;99.90
18948;DHT22;9607;51.600;7.558;2022-08-01T00:29:19;19.30;99.90
18948;DHT22;9607;51.600;7.558;2022-08-01T00:31:46;19.30;99.90
18948;DHT22;9607;51.600;7.558;2022-08-01T00:34:13;19.30;99.90
18948;DHT22;9607;51.600;7.558;2022-08-01T00:36:42;19.30;99.90
18948;DHT22;9607;51.600;7.558;2022-08-01T00:39:09;19.20;99.90
18948;DHT22;9607;51.600;7.558;2022-08-01T00:41:37;19.20;99.90
18948;DHT22;9607;51.600;7.558;2022-08-01T00:44:04;19.20;99.90
18948;DHT22;9607;51.600;7.558;2022-08-01T00:46:32;19.20;99.90
18948;DHT22;9607;51.600;7.558;2022-08-01T00:48:59;19.20;99.90
18948;DHT22;9607;51.600;7.558;2022-08-01T00:51:27;19.20;99.90
18948;DHT22;9607;51.600;7.558;2022-08-01T00:53:57;19.20;99.90
18948;DHT22;9607;51.600;7.558;2022-08-01T00:56:25;19.10;99.90
18948;DHT22;9607;51.600;7.558;2022-08-01T00:58:53;19.10;99.90
18948;DHT22;9607;51.600;7.558;2022-08-01T01:01:21;19.10;99.90
18948;DHT22;9607;51.600;7.558;2022-08-01T01:03:55;19.10;99.90
18948;DHT22;9607;51.600;7.558;2022-08-01T01:06:28;19.10;99.90
18948;DHT22;9607;51.600;7.558;2022-08-01T01:09:17;19.00;99.90
18948;DHT22;9607;51.600;7.558;2022-08-01T01:11:57;19.00;99.90
18948;DHT22;9607;51.600;7.558;2022-08-01T01:14:32;19.00;99.90
18948;DHT22;9607;51.600;7.558;2022-08-01T01:17:02;18.90;99.90
18948;DHT22;9607;51.600;7.558;2022-08-01T01:19:32;18.90;99.90
18948;DHT22;9607;51.600;7.558;2022-08-01T01:22:20;18.90;99.90
18948;DHT22;9607;51.600;7.558;2022-08-01T01:25:00;18.90;99.90
18948;DHT22;9607;51.600;7.558;2022-08-01T01:27:37;18.90;99.90
18948;DHT22;9607;51.600;7.558;2022-08-01T01:30:07;18.80;99.90
18948;DHT22;9607;51.600;7.558;2022-08-01T01:32:38;18.80;99.90
18948;DHT22;9607;51.600;7.558;2022-08-01T01:35:09;18.80;99.90
18948;DHT22;9607;51.600;7.558;2022-08-01T01:37:39;18.90;99.90
18948;DHT22;9607;51.600;7.558;2022-08-01T01:40:08;18.80;99.90
18948;DHT22;9607;51.600;7.558;2022-08-01T01:42:38;18.80;99.90
18948;DHT22;9607;51.600;7.558;2022-08-01T01:45:08;18.80;99.90
18948;DHT22;9607;51.600;7.558;2022-08-01T01:47:36;18.80;99.90
18948;DHT22;9607;51.600;7.558;2022-08-01T01:50:05;18.80;99.90
18948;DHT22;9607;51.600;7.558;2022-08-01T01:52:34;18.80;99.90
18948;DHT22;9607;51.600;7.558;2022-08-01T01:55:04;18.80;99.90
18948;DHT22;9607;51.600;7.558;2022-08-01T01:57:32;18.80;99.90
18948;DHT22;9607;51.600;7.558;2022-08-01T02:00:02;18.80;99.90
18948;DHT22;9607;51.600;7.558;2022-08-01T02:02:31;18.80;99.90
18948;DHT22;9607;51.600;7.558;2022-08-01T02:04:59;18.80;99.90
18948;DHT22;9607;51.600;7.558;2022-08-01T02:07:28;18.80;99.90
18948;DHT22;9607;51.600;7.558;2022-08-01T02:09:56;18.80;99.90
18948;DHT22;9607;51.600;7.558;2022-08-01T02:12:24;18.80;99.90
18948;DHT22;9607;51.600;7.558;2022-08-01T02:14:53;18.80;99.90
18948;DHT22;9607;51.600;7.558;2022-08-01T02:17:22;18.80;99.90
18948;DHT22;9607;51.600;7.558;2022-08-01T02:19:53;18.80;99.90
18948;DHT22;9607;51.600;7.558;2022-08-01T02:22:26;18.80;99.90
18948;DHT22;9607;51.600;7.558;2022-08-01T02:24:58;18.80;99.90
18948;DHT22;9607;51.600;7.558;2022-08-01T02:27:29;18.80;99.90
18948;DHT22;9607;51.600;7.558;2022-08-01T02:29:59;18.80;99.90
18948;DHT22;9607;51.600;7.558;2022-08-01T02:32:30;18.80;99.90
18948;DHT22;9607;51.600;7.558;2022-08-01T02:35:01;18.80;99.90
18948;DHT22;9607;51.600;7.558;2022-08-01T02:37:33;18.80;99.90
18948;DHT22;9607;51.600;7.558;2022-08-01T02:40:00;18.80;99.90
18948;DHT22;9607;51.600;7.558;2022-08-01T02:42:28;18.80;99.90
18948;DHT22;9607;51.600;7.558;2022-08-01T02:44:56;18.80;99.90
18948;DHT22;9607;51.600;7.558;2022-08-01T02:47:25;18.80;99.90
18948;DHT22;9607;51.600;7.558;2022-08-01T02:50:02;18.80;99.90
18948;DHT22;9607;51.600;7.558;2022-08-01T02:52:30;18.80;99.90
18948;DHT22;9607;51.600;7.558;2022-08-01T02:54:58;18.80;99.90
18948;DHT22;9607;51.600;7.558;2022-08-01T02:57:27;18.80;99.90
18948;DHT22;9607;51.600;7.558;2022-08-01T02:59:56;18.70;99.90
18948;DHT22;9607;51.600;7.558;2022-08-01T03:02:24;18.70;99.90
18948;DHT22;9607;51.600;7.558;2022-08-01T03:04:52;18.60;99.90
18948;DHT22;9607;51.600;7.558;2022-08-01T03:07:21;18.60;99.90
18948;DHT22;9607;51.600;7.558;2022-08-01T03:09:50;18.60;99.90
18948;DHT22;9607;51.600;7.558;2022-08-01T03:12:21;18.60;99.90
18948;DHT22;9607;51.600;7.558;2022-08-01T03:14:51;18.60;99.90
18948;DHT22;9607;51.600;7.558;2022-08-01T03:17:21;18.50;99.90
18948;DHT22;9607;51.600;7.558;2022-08-01T03:19:50;18.50;99.90
18948;DHT22;9607;51.600;7.558;2022-08-01T03:22:23;18.50;99.90
18948;DHT22;9607;51.600;7.558;2022-08-01T03:24:52;18.50;99.90
18948;DHT22;9607;51.600;7.558;2022-08-01T03:27:20;18.50;99.90
18948;DHT22;9607;51.600;7.558;2022-08-01T03:29:48;18.50;99.90
18948;DHT22;9607;51.600;7.558;2022-08-01T03:32:21;18.40;99.90
18948;DHT22;9607;51.600;7.558;2022-08-01T03:34:49;18.40;99.90
18948;DHT22;9607;51.600;7.558;2022-08-01T03:37:23;18.50;99.90
18948;DHT22;9607;51.600;7.558;2022-08-01T03:39:55;18.40;99.90
18948;DHT22;9607;51.600;7.558;2022-08-01T03:42:28;18.40;99.90
18948;DHT22;9607;51.600;7.558;2022-08-01T03:45:00;18.40;99.90
18948;DHT22;9607;51.600;7.558;2022-08-01T03:47:31;18.40;99.90
18948;DHT22;9607;51.600;7.558;2022-08-01T03:50:01;18.40;99.90
18948;DHT22;9607;51.600;7.558;2022-08-01T03:52:32;18.40;99.90
18948;DHT22;9607;51.600;7.558;2022-08-01T03:55:03;18.40;99.90
18948;DHT22;9607;51.600;7.558;2022-08-01T03:57:34;18.40;99.90
18948;DHT22;9607;51.600;7.558;2022-08-01T04:00:03;18.40;99.90
18948;DHT22;9607;51.600;7.558;2022-08-01T04:02:33;18.40;99.90
18948;DHT22;9607;51.600;7.558;2022-08-01T04:05:00;18.40;99.90
18948;DHT22;9607;51.600;7.558;2022-08-01T04:07:30;18.30;99.90
18948;DHT22;9607;51.600;7.558;2022-08-01T04:09:58;18.30;99.90
18948;DHT22;9607;51.600;7.558;2022-08-01T04:12:25;18.30;99.90
18948;DHT22;9607;51.600;7.558;2022-08-01T04:14:52;18.30;99.90
18948;DHT22;9607;51.600;7.558;2022-08-01T04:17:19;18.30;99.90
18948;DHT22;9607;51.600;7.558;2022-08-01T04:19:46;18.30;99.90
18948;DHT22;9607;51.600;7.558;2022-08-01T04:22:14;18.30;99.90
18948;DHT22;9607;51.600;7.558;2022-08-01T04:24:46;18.30;99.90
18948;DHT22;9607;51.600;7.558;2022-08-01T04:27:19;18.30;99.90
18948;DHT22;9607;51.600;7.558;2022-08-01T04:29:48;18.20;99.90
18948;DHT22;9607;51.600;7.558;2022-08-01T04:32:19;18.20;99.90
18948;DHT22;9607;51.600;7.558;2022-08-01T04:34:47;18.30;99.90
18948;DHT22;9607;51.600;7.558;2022-08-01T04:37:17;18.20;99.90
18948;DHT22;9607;51.600;7.558;2022-08-01T04:39:47;18.20;99.90
18948;DHT22;9607;51.600;7.558;2022-08-01T04:42:14;18.20;99.90
18948;DHT22;9607;51.600;7.558;2022-08-01T04:44:42;18.20;99.90
18948;DHT22;9607;51.600;7.558;2022-08-01T04:47:09;18.20;99.90
18948;DHT22;9607;51.600;7.558;2022-08-01T04:49:37;18.20;99.90
18948;DHT22;9607;51.600;7.558;2022-08-01T04:52:04;18.30;99.90
18948;DHT22;9607;51.600;7.558;2022-08-01T04:54:33;18.30;99.90
18948;DHT22;9607;51.600;7.558;2022-08-01T04:57:04;18.30;99.90
18948;DHT22;9607;51.600;7.558;2022-08-01T04:59:32;18.30;99.90
18948;DHT22;9607;51.600;7.558;2022-08-01T05:02:06;18.30;99.90
18948;DHT22;9607;51.600;7.558;2022-08-01T05:04:33;18.30;99.90
18948;DHT22;9607;51.600;7.558;2022-08-01T05:07:01;18.30;99.90
18948;DHT22;9607;51.600;7.558;2022-08-01T05:09:28;18.40;99.90
18948;DHT22;9607;51.600;7.558;2022-08-01T05:11:56;18.40;99.90
18948;DHT22;9607;51.600;7.558;2022-08-01T05:14:25;18.50;99.90
18948;DHT22;9607;51.600;7.558;2022-08-01T05:16:52;18.60;99.90
18948;DHT22;9607;51.600;7.558;2022-08-01T05:19:19;18.60;99.90
18948;DHT22;9607;51.600;7.558;2022-08-01T05:21:46;18.70;99.90
18948;DHT22;9607;51.600;7.558;2022-08-01T05:24:13;18.70;99.90
18948;DHT22;9607;51.600;7.558;2022-08-01T05:26:40;18.70;99.90
18948;DHT22;9607;51.600;7.558;2022-08-01T05:29:06;18.70;99.90
18948;DHT22;9607;51.600;7.558;2022-08-01T05:31:35;18.70;99.90
18948;DHT22;9607;51.600;7.558;2022-08-01T05:34:02;18.70;99.90
18948;DHT22;9607;51.600;7.558;2022-08-01T05:36:29;18.70;99.90
18948;DHT22;9607;51.600;7.558;2022-08-01T05:38:56;18.70;99.90
18948;DHT22;9607;51.600;7.558;2022-08-01T05:41:23;18.70;99.90
18948;DHT22;9607;51.600;7.558;2022-08-01T05:43:50;18.80;99.90
18948;DHT22;9607;51.600;7.558;2022-08-01T05:46:16;18.80;99.90
18948;DHT22;9607;51.600;7.558;2022-08-01T05:48:45;18.80;99.90
18948;DHT22;9607;51.600;7.558;2022-08-01T05:51:12;18.80;99.90
18948;DHT22;9607;51.600;7.558;2022-08-01T05:53:38;18.80;99.90
18948;DHT22;9607;51.600;7.558;2022-08-01T05:56:05;18.80;99.90
18948;DHT22;9607;51.600;7.558;2022-08-01T05:58:32;18.90;99.90
18948;DHT22;9607;51.600;7.558;2022-08-01T06:00:59;18.90;99.90
18948;DHT22;9607;51.600;7.558;2022-08-01T06:03:27;19.00;99.90
18948;DHT22;9607;51.600;7.558;2022-08-01T06:05:58;19.00;99.90
18948;DHT22;9607;51.600;7.558;2022-08-01T06:08:25;19.00;99.90
18948;DHT22;9607;51.600;7.558;2022-08-01T06:10:52;19.10;99.90
18948;DHT22;9607;51.600;7.558;2022-08-01T06:13:19;19.10;99.90
18948;DHT22;9607;51.600;7.558;2022-08-01T06:15:46;19.10;99.90
18948;DHT22;9607;51.600;7.558;2022-08-01T06:18:13;19.20;99.90
18948;DHT22;9607;51.600;7.558;2022-08-01T06:20:40;19.20;99.90
18948;DHT22;9607;51.600;7.558;2022-08-01T06:23:09;19.30;99.90
18948;DHT22;9607;51.600;7.558;2022-08-01T06:25:36;19.30;99.90
18948;DHT22;9607;51.600;7.558;2022-08-01T06:28:03;19.40;99.90
18948;DHT22;9607;51.600;7.558;2022-08-01T06:30:30;19.50;99.90
18948;DHT22;9607;51.600;7.558;2022-08-01T06:32:57;19.60;99.90
18948;DHT22;9607;51.600;7.558;2022-08-01T06:35:25;19.70;99.90
18948;DHT22;9607;51.600;7.558;2022-08-01T06:37:52;19.80;99.90
18948;DHT22;9607;51.600;7.558;2022-08-01T06:40:20;19.90;99.90
18948;DHT22;9607;51.600;7.558;2022-08-01T06:42:47;20.00;99.90
18948;DHT22;9607;51.600;7.558;2022-08-01T06:45:14;20.00;99.90
18948;DHT22;9607;51.600;7.558;2022-08-01T06:47:43;20.00;99.90
18948;DHT22;9607;51.600;7.558;2022-08-01T06:50:10;20.00;99.90
18948;DHT22;9607;51.600;7.558;2022-08-01T06:52:39;20.10;99.90
18948;DHT22;9607;51.600;7.558;2022-08-01T06:55:07;20.00;99.90
18948;DHT22;9607;51.600;7.558;2022-08-01T06:57:44;20.00;99.90
18948;DHT22;9607;51.600;7.558;2022-08-01T07:00:12;20.00;99.90
18948;DHT22;9607;51.600;7.558;2022-08-01T07:02:39;20.10;99.90
18948;DHT22;9607;51.600;7.558;2022-08-01T07:05:07;20.20;99.90
18948;DHT22;9607;51.600;7.558;2022-08-01T07:07:34;20.40;99.90
18948;DHT22;9607;51.600;7.558;2022-08-01T07:10:01;20.50;99.90
18948;DHT22;9607;51.600;7.558;2022-08-01T07:12:28;20.60;99.90
18948;DHT22;9607;51.600;7.558;2022-08-01T07:14:56;20.60;99.90
18948;DHT22;9607;51.600;7.558;2022-08-01T07:17:23;20.60;99.90
18948;DHT22;9607;51.600;7.558;2022-08-01T07:19:50;20.60;99.90
18948;DHT22;9607;51.600;7.558;2022-08-01T07:22:19;20.50;99.90
18948;DHT22;9607;51.600;7.558;2022-08-01T07:24:46;20.40;99.90
18948;DHT22;9607;51.600;7.558;2022-08-01T07:27:13;20.40;99.90
18948;DHT22;9607;51.600;7.558;2022-08-01T07:29:40;20.30;99.90
18948;DHT22;9607;51.600;7.558;2022-08-01T07:32:08;20.30;99.90
18948;DHT22;9607;51.600;7.558;2022-08-01T07:34:35;20.30;99.90
18948;DHT22;9607;51.600;7.558;2022-08-01T07:37:02;20.30;99.90
18948;DHT22;9607;51.600;7.558;2022-08-01T07:39:28;20.40;99.90
18948;DHT22;9607;51.600;7.558;2022-08-01T07:41:55;20.60;99.90
18948;DHT22;9607;51.600;7.558;2022-08-01T07:44:23;20.70;99.90
18948;DHT22;9607;51.600;7.558;2022-08-01T07:46:50;20.80;99.90
18948;DHT22;9607;51.600;7.558;2022-08-01T07:49:18;21.00;99.90
18948;DHT22;9607;51.600;7.558;2022-08-01T07:51:47;21.10;99.90
18948;DHT22;9607;51.600;7.558;2022-08-01T07:54:14;21.20;99.90
18948;DHT22;9607;51.600;7.558;2022-08-01T07:56:40;21.40;99.90
18948;DHT22;9607;51.600;7.558;2022-08-01T07:59:07;21.50;99.90
18948;DHT22;9607;51.600;7.558;2022-08-01T08:01:34;21.60;99.90
18948;DHT22;9607;51.600;7.558;2022-08-01T08:04:01;21.70;99.90
18948;DHT22;9607;51.600;7.558;2022-08-01T08:06:29;21.80;99.90
18948;DHT22;9607;51.600;7.558;2022-08-01T08:08:56;21.70;99.90
18948;DHT22;9607;51.600;7.558;2022-08-01T08:11:23;21.80;99.90
18948;DHT22;9607;51.600;7.558;2022-08-01T08:13:50;21.60;99.90
18948;DHT22;9607;51.600;7.558;2022-08-01T08:16:17;21.60;99.90
18948;DHT22;9607;51.600;7.558;2022-08-01T08:18:44;21.50;99.90
18948;DHT22;9607;51.600;7.558;2022-08-01T08:21:11;21.60;99.90
18948;DHT22;9607;51.600;7.558;2022-08-01T08:23:39;21.60;99.90
18948;DHT22;9607;51.600;7.558;2022-08-01T08:26:35;21.70;99.90
18948;DHT22;9607;51.600;7.558;2022-08-01T08:29:03;21.70;99.90
18948;DHT22;9607;51.600;7.558;2022-08-01T08:31:30;21.60;99.90
18948;DHT22;9607;51.600;7.558;2022-08-01T08:33:57;21.60;99.90
18948;DHT22;9607;51.600;7.558;2022-08-01T08:36:24;21.50;99.90
18948;DHT22;9607;51.600;7.558;2022-08-01T08:38:52;21.60;99.90
18948;DHT22;9607;51.600;7.558;2022-08-01T08:41:20;21.60;99.90
18948;DHT22;9607;51.600;7.558;2022-08-01T08:43:48;21.70;99.90
18948;DHT22;9607;51.600;7.558;2022-08-01T08:46:16;21.80;99.90
18948;DHT22;9607;51.600;7.558;2022-08-01T08:48:43;21.90;99.90
18948;DHT22;9607;51.600;7.558;2022-08-01T08:51:12;21.90;99.90
18948;DHT22;9607;51.600;7.558;2022-08-01T08:53:40;22.00;99.90
18948;DHT22;9607;51.600;7.558;2022-08-01T08:56:12;22.00;99.90
18948;DHT22;9607;51.600;7.558;2022-08-01T08:58:41;22.10;99.90
18948;DHT22;9607;51.600;7.558;2022-08-01T09:01:09;22.20;99.90
18948;DHT22;9607;51.600;7.558;2022-08-01T09:03:36;22.40;99.90
18948;DHT22;9607;51.600;7.558;2022-08-01T09:06:03;22.50;99.90
18948;DHT22;9607;51.600;7.558;2022-08-01T09:08:30;22.60;99.90
18948;DHT22;9607;51.600;7.558;2022-08-01T09:10:57;22.50;99.90
18948;DHT22;9607;51.600;7.558;2022-08-01T09:13:25;22.60;99.90
18948;DHT22;9607;51.600;7.558;2022-08-01T09:15:53;22.60;99.90
18948;DHT22;9607;51.600;7.558;2022-08-01T09:18:31;22.70;99.90
18948;DHT22;9607;51.600;7.558;2022-08-01T09:21:14;22.80;99.90
18948;DHT22;9607;51.600;7.558;2022-08-01T09:23:44;22.70;99.90
18948;DHT22;9607;51.600;7.558;2022-08-01T09:26:12;22.70;99.90
18948;DHT22;9607;51.600;7.558;2022-08-01T09:28:40;22.70;99.90
18948;DHT22;9607;51.600;7.558;2022-08-01T09:31:09;22.90;99.90
18948;DHT22;9607;51.600;7.558;2022-08-01T09:33:53;23.00;99.90
18948;DHT22;9607;51.600;7.558;2022-08-01T09:36:22;23.20;99.90
18948;DHT22;9607;51.600;7.558;2022-08-01T09:38:50;23.30;99.90
18948;DHT22;9607;51.600;7.558;2022-08-01T09:41:19;23.30;99.90
18948;DHT22;9607;51.600;7.558;2022-08-01T09:43:55;23.20;99.90
18948;DHT22;9607;51.600;7.558;2022-08-01T09:46:22;23.00;99.90
18948;DHT22;9607;51.600;7.558;2022-08-01T09:48:56;23.00;99.90
18948;DHT22;9607;51.600;7.558;2022-08-01T09:51:31;22.70;99.90
18948;DHT22;9607;51.600;7.558;2022-08-01T09:53:59;22.80;99.90
18948;DHT22;9607;51.600;7.558;2022-08-01T09:56:26;22.90;99.90
18948;DHT22;9607;51.600;7.558;2022-08-01T09:59:03;22.90;99.90
18948;DHT22;9607;51.600;7.558;2022-08-01T10:01:42;22.70;99.90
18948;DHT22;9607;51.600;7.558;2022-08-01T10:04:11;22.60;99.90
18948;DHT22;9607;51.600;7.558;2022-08-01T10:06:40;22.60;99.90
18948;DHT22;9607;51.600;7.558;2022-08-01T10:09:10;22.80;99.90
18948;DHT22;9607;51.600;7.558;2022-08-01T10:11:38;23.10;99.90
18948;DHT22;9607;51.600;7.558;2022-08-01T10:14:08;23.40;99.90
18948;DHT22;9607;51.600;7.558;2022-08-01T10:16:35;23.50;99.90
18948;DHT22;9607;51.600;7.558;2022-08-01T10:19:05;23.30;99.90
18948;DHT22;9607;51.600;7.558;2022-08-01T10:21:33;22.90;99.90
18948;DHT22;9607;51.600;7.558;2022-08-01T10:24:02;22.90;99.90
18948;DHT22;9607;51.600;7.558;2022-08-01T10:26:33;22.90;99.90
18948;DHT22;9607;51.600;7.558;2022-08-01T10:29:00;22.90;99.90
18948;DHT22;9607;51.600;7.558;2022-08-01T10:31:29;22.90;99.90
18948;DHT22;9607;51.600;7.558;2022-08-01T10:33:59;22.70;99.90
18948;DHT22;9607;51.600;7.558;2022-08-01T10:36:26;22.60;99.90
18948;DHT22;9607;51.600;7.558;2022-08-01T10:38:54;22.70;99.90
18948;DHT22;9607;51.600;7.558;2022-08-01T10:41:21;22.70;99.90
18948;DHT22;9607;51.600;7.558;2022-08-01T10:43:50;22.80;99.90
18948;DHT22;9607;51.600;7.558;2022-08-01T10:46:19;22.90;99.90
18948;DHT22;9607;51.600;7.558;2022-08-01T10:48:54;22.90;99.90
18948;DHT22;9607;51.600;7.558;2022-08-01T10:51:23;23.00;99.90
18948;DHT22;9607;51.600;7.558;2022-08-01T10:53:52;23.00;99.90
18948;DHT22;9607;51.600;7.558;2022-08-01T10:56:20;23.10;99.90
18948;DHT22;9607;51.600;7.558;2022-08-01T10:58:48;23.00;99.90
18948;DHT22;9607;51.600;7.558;2022-08-01T11:01:17;23.00;99.90
18948;DHT22;9607;51.600;7.558;2022-08-01T11:04:07;22.90;99.90
18948;DHT22;9607;51.600;7.558;2022-08-01T11:06:48;22.70;99.90
18948;DHT22;9607;51.600;7.558;2022-08-01T11:09:30;22.90;99.90
18948;DHT22;9607;51.600;7.558;2022-08-01T11:12:01;23.20;99.90
18948;DHT22;9607;51.600;7.558;2022-08-01T11:14:30;23.40;99.90
18948;DHT22;9607;51.600;7.558;2022-08-01T11:17:29;23.50;99.90
18948;DHT22;9607;51.600;7.558;2022-08-01T11:20:09;23.50;99.90
18948;DHT22;9607;51.600;7.558;2022-08-01T11:26:10;23.40;99.90
18948;DHT22;9607;51.600;7.558;2022-08-01T11:28:38;23.40;99.90
18948;DHT22;9607;51.600;7.558;2022-08-01T11:31:30;23.50;99.90
18948;DHT22;9607;51.600;7.558;2022-08-01T11:33:57;23.60;99.90
18948;DHT22;9607;51.600;7.558;2022-08-01T11:36:26;23.70;99.90
18948;DHT22;9607;51.600;7.558;2022-08-01T11:39:13;23.90;99.90
18948;DHT22;9607;51.600;7.558;2022-08-01T11:41:41;23.80;99.90
18948;DHT22;9607;51.600;7.558;2022-08-01T11:44:10;23.90;99.90
18948;DHT22;9607;51.600;7.558;2022-08-01T11:46:50;23.80;99.90
18948;DHT22;9607;51.600;7.558;2022-08-01T11:49:33;23.80;99.90
18948;DHT22;9607;51.600;7.558;2022-08-01T11:52:05;23.80;99.90
18948;DHT22;9607;51.600;7.558;2022-08-01T11:54:34;23.80;99.90
18948;DHT22;9607;51.600;7.558;2022-08-01T11:57:04;23.80;99.90
18948;DHT22;9607;51.600;7.558;2022-08-01T11:59:37;24.00;99.90
18948;DHT22;9607;51.600;7.558;2022-08-01T12:02:05;24.40;99.90
18948;DHT22;9607;51.600;7.558;2022-08-01T12:04:48;24.70;99.90
18948;DHT22;9607;51.600;7.558;2022-08-01T12:07:17;24.90;99.90
18948;DHT22;9607;51.600;7.558;2022-08-01T12:09:44;25.10;99.90
18948;DHT22;9607;51.600;7.558;2022-08-01T12:12:15;25.20;99.90
18948;DHT22;9607;51.600;7.558;2022-08-01T12:14:43;25.20;99.90
18948;DHT22;9607;51.600;7.558;2022-08-01T12:17:12;25.30;99.90
18948;DHT22;9607;51.600;7.558;2022-08-01T12:19:40;25.30;99.90
18948;DHT22;9607;51.600;7.558;2022-08-01T12:22:09;25.50;99.90
18948;DHT22;9607;51.600;7.558;2022-08-01T12:24:38;25.50;99.90
18948;DHT22;9607;51.600;7.558;2022-08-01T12:27:07;25.40;99.90
18948;DHT22;9607;51.600;7.558;2022-08-01T12:29:35;25.30;99.90
18948;DHT22;9607;51.600;7.558;2022-08-01T12:32:03;25.20;99.90
18948;DHT22;9607;51.600;7.558;2022-08-01T12:34:30;25.00;99.90
18948;DHT22;9607;51.600;7.558;2022-08-01T12:37:00;25.20;99.90
18948;DHT22;9607;51.600;7.558;2022-08-01T12:39:32;25.40;99.90
18948;DHT22;9607;51.600;7.558;2022-08-01T12:42:01;25.50;99.90
18948;DHT22;9607;51.600;7.558;2022-08-01T12:44:32;25.60;99.90
18948;DHT22;9607;51.600;7.558;2022-08-01T12:47:00;25.80;99.40
18948;DHT22;9607;51.600;7.558;2022-08-01T12:49:28;26.20;99.40
18948;DHT22;9607;51.600;7.558;2022-08-01T12:51:55;26.60;96.80
18948;DHT22;9607;51.600;7.558;2022-08-01T12:54:23;26.80;95.20
18948;DHT22;9607;51.600;7.558;2022-08-01T12:56:51;27.20;93.30
18948;DHT22;9607;51.600;7.558;2022-08-01T12:59:22;27.50;92.20
18948;DHT22;9607;51.600;7.558;2022-08-01T13:01:51;27.90;91.10
18948;DHT22;9607;51.600;7.558;2022-08-01T13:04:19;28.30;91.30
18948;DHT22;9607;51.600;7.558;2022-08-01T13:06:46;28.20;88.00
18948;DHT22;9607;51.600;7.558;2022-08-01T13:09:14;28.20;88.00
18948;DHT22;9607;51.600;7.558;2022-08-01T13:11:41;27.70;86.40
18948;DHT22;9607;51.600;7.558;2022-08-01T13:14:08;27.50;90.00
18948;DHT22;9607;51.600;7.558;2022-08-01T13:16:47;27.30;90.40
18948;DHT22;9607;51.600;7.558;2022-08-01T13:19:14;27.20;91.50
18948;DHT22;9607;51.600;7.558;2022-08-01T13:21:54;27.20;91.70
18948;DHT22;9607;51.600;7.558;2022-08-01T13:24:25;27.10;92.00
18948;DHT22;9607;51.600;7.558;2022-08-01T13:26:54;27.00;92.40
18948;DHT22;9607;51.600;7.558;2022-08-01T13:29:30;27.00;92.30
18948;DHT22;9607;51.600;7.558;2022-08-01T13:31:58;26.90;91.90
18948;DHT22;9607;51.600;7.558;2022-08-01T13:34:32;26.80;91.90
18948;DHT22;9607;51.600;7.558;2022-08-01T13:37:00;26.60;93.10
18948;DHT22;9607;51.600;7.558;2022-08-01T13:39:28;26.30;93.50
18948;DHT22;9607;51.600;7.558;2022-08-01T13:42:07;26.00;94.40
18948;DHT22;9607;51.600;7.558;2022-08-01T13:44:35;26.00;95.80
18948;DHT22;9607;51.600;7.558;2022-08-01T13:47:04;26.10;96.20
18948;DHT22;9607;51.600;7.558;2022-08-01T13:49:31;26.20;95.90
18948;DHT22;9607;51.600;7.558;2022-08-01T13:51:58;26.40;95.90
18948;DHT22;9607;51.600;7.558;2022-08-01T13:54:25;26.50;96.20
18948;DHT22;9607;51.600;7.558;2022-08-01T13:56:52;26.80;96.20
18948;DHT22;9607;51.600;7.558;2022-08-01T13:59:19;27.10;95.80
18948;DHT22;9607;51.600;7.558;2022-08-01T14:01:47;27.30;92.00
18948;DHT22;9607;51.600;7.558;2022-08-01T14:04:15;27.20;90.70
18948;DHT22;9607;51.600;7.558;2022-08-01T14:06:42;26.90;90.40
18948;DHT22;9607;51.600;7.558;2022-08-01T14:09:09;26.90;91.90
18948;DHT22;9607;51.600;7.558;2022-08-01T14:11:36;26.90;91.40
18948;DHT22;9607;51.600;7.558;2022-08-01T14:14:03;26.90;91.40
18948;DHT22;9607;51.600;7.558;2022-08-01T14:16:30;26.70;91.10
18948;DHT22;9607;51.600;7.558;2022-08-01T14:18:57;26.50;92.10
18948;DHT22;9607;51.600;7.558;2022-08-01T14:21:25;26.20;92.40
18948;DHT22;9607;51.600;7.558;2022-08-01T14:23:52;26.10;93.80
18948;DHT22;9607;51.600;7.558;2022-08-01T14:26:19;26.10;94.40
18948;DHT22;9607;51.600;7.558;2022-08-01T14:28:46;26.20;95.60
18948;DHT22;9607;51.600;7.558;2022-08-01T14:31:13;26.20;94.70
18948;DHT22;9607;51.600;7.558;2022-08-01T14:33:40;26.60;95.50
18948;DHT22;9607;51.600;7.558;2022-08-01T14:36:07;26.90;93.10
18948;DHT22;9607;51.600;7.558;2022-08-01T14:38:35;27.20;92.10
18948;DHT22;9607;51.600;7.558;2022-08-01T14:41:02;27.50;91.40
18948;DHT22;9607;51.600;7.558;2022-08-01T14:43:29;27.50;90.40
18948;DHT22;9607;51.600;7.558;2022-08-01T14:45:57;27.40;90.20
18948;DHT22;9607;51.600;7.558;2022-08-01T14:48:24;27.40;90.40
18948;DHT22;9607;51.600;7.558;2022-08-01T14:50:51;27.30;89.70
18948;DHT22;9607;51.600;7.558;2022-08-01T14:53:18;27.20;88.40
18948;DHT22;9607;51.600;7.558;2022-08-01T14:55:47;27.10;88.90
18948;DHT22;9607;51.600;7.558;2022-08-01T14:58:14;27.00;88.90
18948;DHT22;9607;51.600;7.558;2022-08-01T15:00:41;26.70;89.70
18948;DHT22;9607;51.600;7.558;2022-08-01T15:03:08;26.70;90.60
18948;DHT22;9607;51.600;7.558;2022-08-01T15:05:35;27.00;92.30
18948;DHT22;9607;51.600;7.558;2022-08-01T15:08:02;27.20;90.30
18948;DHT22;9607;51.600;7.558;2022-08-01T15:10:30;27.50;88.60
18948;DHT22;9607;51.600;7.558;2022-08-01T15:12:59;28.00;90.00
18948;DHT22;9607;51.600;7.558;2022-08-01T15:15:27;28.60;87.90
18948;DHT22;9607;51.600;7.558;2022-08-01T15:17:54;29.20;82.00
18948;DHT22;9607;51.600;7.558;2022-08-01T15:20:21;29.70;77.60
18948;DHT22;9607;51.600;7.558;2022-08-01T15:22:52;30.20;76.10
18948;DHT22;9607;51.600;7.558;2022-08-01T15:25:20;31.10;75.20
18948;DHT22;9607;51.600;7.558;2022-08-01T15:27:47;32.20;68.00
18948;DHT22;9607;51.600;7.558;2022-08-01T15:30:15;32.50;60.90
18948;DHT22;9607;51.600;7.558;2022-08-01T15:32:42;32.30;60.80
18948;DHT22;9607;51.600;7.558;2022-08-01T15:35:09;32.40;58.20
18948;DHT22;9607;51.600;7.558;2022-08-01T15:37:36;32.50;59.80
18948;DHT22;9607;51.600;7.558;2022-08-01T15:40:04;33.10;57.80
18948;DHT22;9607;51.600;7.558;2022-08-01T15:42:31;33.80;57.10
18948;DHT22;9607;51.600;7.558;2022-08-01T15:44:58;34.20;53.50
18948;DHT22;9607;51.600;7.558;2022-08-01T15:47:26;34.30;52.40
18948;DHT22;9607;51.600;7.558;2022-08-01T15:49:53;34.10;52.40
18948;DHT22;9607;51.600;7.558;2022-08-01T15:52:24;33.70;52.80
18948;DHT22;9607;51.600;7.558;2022-08-01T15:54:51;33.50;53.00
18948;DHT22;9607;51.600;7.558;2022-08-01T15:57:18;33.40;52.50
18948;DHT22;9607;51.600;7.558;2022-08-01T15:59:45;33.00;52.20
18948;DHT22;9607;51.600;7.558;2022-08-01T16:02:12;32.50;53.20